Pays
Station

 

Conditions  météo  pour  Tarbes/Ossun  -  France    France

  
13 °C
    
 
 

METAR pour Tarbes/Ossun :

LFBT 201000Z AUTO 27007KT 230V310 9999 SCT013 BKN040 OVC064 13/10 Q1016 BECMG SCT030TCU BKN050

 

Voici le bulletin pour Tarbes/Ossun - France.
 
Le bulletin a été fait il y a 33 minutes, à 10:00 UTC .
Le vent soufflait à la vitesse de 3.6 mètres par seconde de Ouest (270°), variant entre Sud-ouest (230°) et Nord-ouest (310°).
 
La température était de 13 °C, avec un point de rosée à 10 °C.
La pression atmosphérique était de 1016 hPa.
L'humidité relative était de 82.0%.
 
Il y avait 3 à 4/8ème de nébulosité à une hauteur de 396 mètres et 5 à 7/8ème de nébulosité à une hauteur de 1219 mètres. Le ciel était nuageux à partir d'une hauteur de 1951 mètres
 
La visibilité globale était de supérieure à 10 kilomètres.
 

 
 
 

Pays :   A   B   C   D   E   F   G   H   I   J   K   L   M   N   O   P   Q   R   S   T   U   V   W   Y   Z

 

Partenaires :  Info Météo avec Met'info
Météo Marine avec MeteoMarine.net
Infos Site  |  Infos Légales  |  Crédits  |  Confidentialité
Contactez-nous  |  Ajouter aux favoris
© 2013-2019 METAR - Tous droits réservés